Bishop, Texas
Current Conditions -  °F | °C
As of 12:56 AM on Thursday 27 Nov 2014 (Local Time) from KNQI Reporting Station
Clear Clear  
Wind Chill: 50°   Ceiling: Unl
Heat Index: 50°   Visibility: 10mi
Dew Point: 46°   Wind: 6mph
Humidity: 86%   Direction: 180°S
Pressure: 30.32"   Gusts: NA
Location:  27.59°N, 97.8°W
Report Text: KNQI 270656Z AUTO 18005KT 10SM CLR 10/08 A3032 RMK AO2 SLP263 T01000078
Loading
Personal Weather Stations






























Interactive Weather Map New forecast layout! Learn more

10-Day Weather Forecast

Advertisements
Track Severe Weather on mobile